sensor_id;sensor_type;location;lat;lon;timestamp;P1;durP1;ratioP1;P2;durP2;ratioP2
9950;SDS011;24074;49.254;6.702;2024-03-07T00:00:25;11.93;;;8.40;;
9950;SDS011;24074;49.254;6.702;2024-03-07T00:02:51;11.90;;;8.37;;
9950;SDS011;24074;49.254;6.702;2024-03-07T00:05:17;9.17;;;6.97;;
9950;SDS011;24074;49.254;6.702;2024-03-07T00:07:44;9.50;;;6.90;;
9950;SDS011;24074;49.254;6.702;2024-03-07T00:10:10;12.20;;;8.30;;
9950;SDS011;24074;49.254;6.702;2024-03-07T00:12:36;13.17;;;7.67;;
9950;SDS011;24074;49.254;6.702;2024-03-07T00:15:05;13.37;;;8.27;;
9950;SDS011;24074;49.254;6.702;2024-03-07T00:17:32;12.23;;;8.80;;
9950;SDS011;24074;49.254;6.702;2024-03-07T00:19:58;13.97;;;10.30;;
9950;SDS011;24074;49.254;6.702;2024-03-07T00:22:23;15.57;;;11.10;;
9950;SDS011;24074;49.254;6.702;2024-03-07T00:24:51;17.27;;;10.53;;
9950;SDS011;24074;49.254;6.702;2024-03-07T00:27:20;18.00;;;12.13;;
9950;SDS011;24074;49.254;6.702;2024-03-07T00:29:49;19.40;;;12.40;;
9950;SDS011;24074;49.254;6.702;2024-03-07T00:32:22;19.13;;;12.80;;
9950;SDS011;24074;49.254;6.702;2024-03-07T00:34:48;20.80;;;13.60;;
9950;SDS011;24074;49.254;6.702;2024-03-07T00:37:15;20.53;;;13.83;;
9950;SDS011;24074;49.254;6.702;2024-03-07T00:39:40;21.30;;;14.23;;
9950;SDS011;24074;49.254;6.702;2024-03-07T00:42:07;21.93;;;14.77;;
9950;SDS011;24074;49.254;6.702;2024-03-07T00:44:33;26.00;;;16.80;;
9950;SDS011;24074;49.254;6.702;2024-03-07T00:47:01;25.90;;;17.00;;
9950;SDS011;24074;49.254;6.702;2024-03-07T00:49:27;24.07;;;16.70;;
9950;SDS011;24074;49.254;6.702;2024-03-07T00:51:53;24.43;;;16.20;;
9950;SDS011;24074;49.254;6.702;2024-03-07T00:54:19;27.47;;;17.53;;
9950;SDS011;24074;49.254;6.702;2024-03-07T00:56:48;28.83;;;18.57;;
9950;SDS011;24074;49.254;6.702;2024-03-07T00:59:14;28.00;;;18.97;;
9950;SDS011;24074;49.254;6.702;2024-03-07T01:01:43;28.27;;;18.40;;
9950;SDS011;24074;49.254;6.702;2024-03-07T01:04:09;27.90;;;19.27;;
9950;SDS011;24074;49.254;6.702;2024-03-07T01:06:36;29.10;;;19.67;;
9950;SDS011;24074;49.254;6.702;2024-03-07T01:09:02;29.70;;;20.43;;
9950;SDS011;24074;49.254;6.702;2024-03-07T01:11:28;29.83;;;20.40;;
9950;SDS011;24074;49.254;6.702;2024-03-07T01:13:54;30.57;;;20.83;;
9950;SDS011;24074;49.254;6.702;2024-03-07T01:16:20;31.20;;;21.30;;
9950;SDS011;24074;49.254;6.702;2024-03-07T01:18:46;30.53;;;21.50;;
9950;SDS011;24074;49.254;6.702;2024-03-07T01:21:12;31.40;;;21.40;;
9950;SDS011;24074;49.254;6.702;2024-03-07T01:23:38;31.53;;;20.97;;
9950;SDS011;24074;49.254;6.702;2024-03-07T01:26:04;32.33;;;21.33;;
9950;SDS011;24074;49.254;6.702;2024-03-07T01:28:29;28.10;;;20.37;;
9950;SDS011;24074;49.254;6.702;2024-03-07T01:30:55;31.60;;;22.03;;
9950;SDS011;24074;49.254;6.702;2024-03-07T01:33:22;32.70;;;21.93;;
9950;SDS011;24074;49.254;6.702;2024-03-07T01:35:48;32.77;;;20.80;;
9950;SDS011;24074;49.254;6.702;2024-03-07T01:38:14;33.30;;;21.87;;
9950;SDS011;24074;49.254;6.702;2024-03-07T01:40:40;29.87;;;20.67;;
9950;SDS011;24074;49.254;6.702;2024-03-07T01:43:06;29.37;;;20.83;;
9950;SDS011;24074;49.254;6.702;2024-03-07T01:45:33;32.23;;;21.97;;
9950;SDS011;24074;49.254;6.702;2024-03-07T01:47:58;32.63;;;22.97;;
9950;SDS011;24074;49.254;6.702;2024-03-07T01:50:24;32.03;;;21.67;;
9950;SDS011;24074;49.254;6.702;2024-03-07T01:52:50;33.57;;;22.10;;
9950;SDS011;24074;49.254;6.702;2024-03-07T01:55:16;33.83;;;22.03;;
9950;SDS011;24074;49.254;6.702;2024-03-07T01:57:44;30.93;;;21.67;;
9950;SDS011;24074;49.254;6.702;2024-03-07T02:00:10;29.93;;;20.37;;
9950;SDS011;24074;49.254;6.702;2024-03-07T02:02:36;31.10;;;22.10;;
9950;SDS011;24074;49.254;6.702;2024-03-07T02:05:02;32.03;;;21.93;;
9950;SDS011;24074;49.254;6.702;2024-03-07T02:07:29;32.03;;;22.40;;
9950;SDS011;24074;49.254;6.702;2024-03-07T02:10:04;35.70;;;23.20;;
9950;SDS011;24074;49.254;6.702;2024-03-07T02:12:31;36.43;;;23.33;;
9950;SDS011;24074;49.254;6.702;2024-03-07T02:14:57;32.47;;;23.47;;
9950;SDS011;24074;49.254;6.702;2024-03-07T02:17:23;34.10;;;22.67;;
9950;SDS011;24074;49.254;6.702;2024-03-07T02:19:50;32.70;;;22.93;;
9950;SDS011;24074;49.254;6.702;2024-03-07T02:22:15;30.97;;;22.20;;
9950;SDS011;24074;49.254;6.702;2024-03-07T02:24:41;34.10;;;24.37;;
9950;SDS011;24074;49.254;6.702;2024-03-07T02:27:07;33.20;;;22.87;;
9950;SDS011;24074;49.254;6.702;2024-03-07T02:29:34;33.23;;;24.00;;
9950;SDS011;24074;49.254;6.702;2024-03-07T02:32:01;35.03;;;23.90;;
9950;SDS011;24074;49.254;6.702;2024-03-07T02:34:27;34.43;;;23.43;;
9950;SDS011;24074;49.254;6.702;2024-03-07T02:36:53;32.40;;;23.27;;
9950;SDS011;24074;49.254;6.702;2024-03-07T02:39:18;34.03;;;23.17;;
9950;SDS011;24074;49.254;6.702;2024-03-07T02:41:45;33.77;;;23.93;;
9950;SDS011;24074;49.254;6.702;2024-03-07T02:44:12;35.40;;;24.13;;
9950;SDS011;24074;49.254;6.702;2024-03-07T02:46:39;35.20;;;23.57;;
9950;SDS011;24074;49.254;6.702;2024-03-07T02:49:05;31.93;;;23.47;;
9950;SDS011;24074;49.254;6.702;2024-03-07T02:51:30;33.97;;;23.80;;
9950;SDS011;24074;49.254;6.702;2024-03-07T02:53:56;34.00;;;22.83;;
9950;SDS011;24074;49.254;6.702;2024-03-07T02:56:23;33.67;;;24.23;;
9950;SDS011;24074;49.254;6.702;2024-03-07T02:58:49;32.43;;;22.97;;
9950;SDS011;24074;49.254;6.702;2024-03-07T03:01:16;35.23;;;23.40;;
9950;SDS011;24074;49.254;6.702;2024-03-07T03:03:41;32.93;;;23.07;;
9950;SDS011;24074;49.254;6.702;2024-03-07T03:06:07;31.23;;;23.27;;
9950;SDS011;24074;49.254;6.702;2024-03-07T03:08:34;32.97;;;22.93;;
9950;SDS011;24074;49.254;6.702;2024-03-07T03:11:00;34.57;;;22.80;;
9950;SDS011;24074;49.254;6.702;2024-03-07T03:13:25;31.60;;;21.70;;
9950;SDS011;24074;49.254;6.702;2024-03-07T03:15:52;31.27;;;22.13;;
9950;SDS011;24074;49.254;6.702;2024-03-07T03:18:20;35.80;;;23.47;;
9950;SDS011;24074;49.254;6.702;2024-03-07T03:20:46;30.13;;;22.27;;
9950;SDS011;24074;49.254;6.702;2024-03-07T03:23:13;34.10;;;23.33;;
9950;SDS011;24074;49.254;6.702;2024-03-07T03:25:39;29.60;;;22.63;;
9950;SDS011;24074;49.254;6.702;2024-03-07T03:28:06;33.13;;;23.63;;
9950;SDS011;24074;49.254;6.702;2024-03-07T03:30:34;34.83;;;23.63;;
9950;SDS011;24074;49.254;6.702;2024-03-07T03:33:06;34.47;;;22.00;;
9950;SDS011;24074;49.254;6.702;2024-03-07T03:35:32;32.60;;;23.00;;
9950;SDS011;24074;49.254;6.702;2024-03-07T03:38:07;35.93;;;23.60;;
9950;SDS011;24074;49.254;6.702;2024-03-07T03:40:34;34.43;;;24.90;;
9950;SDS011;24074;49.254;6.702;2024-03-07T03:43:00;35.70;;;24.70;;
9950;SDS011;24074;49.254;6.702;2024-03-07T03:45:25;36.03;;;24.50;;
9950;SDS011;24074;49.254;6.702;2024-03-07T03:47:51;36.90;;;25.20;;
9950;SDS011;24074;49.254;6.702;2024-03-07T03:50:17;37.50;;;25.57;;
9950;SDS011;24074;49.254;6.702;2024-03-07T03:52:43;35.40;;;24.27;;
9950;SDS011;24074;49.254;6.702;2024-03-07T03:55:09;36.90;;;24.67;;
9950;SDS011;24074;49.254;6.702;2024-03-07T03:57:38;38.47;;;25.87;;
9950;SDS011;24074;49.254;6.702;2024-03-07T04:00:05;35.70;;;25.30;;
9950;SDS011;24074;49.254;6.702;2024-03-07T04:02:38;40.40;;;26.60;;
9950;SDS011;24074;49.254;6.702;2024-03-07T04:05:13;41.67;;;27.63;;
9950;SDS011;24074;49.254;6.702;2024-03-07T04:07:40;38.13;;;25.73;;
9950;SDS011;24074;49.254;6.702;2024-03-07T04:10:09;37.40;;;26.23;;
9950;SDS011;24074;49.254;6.702;2024-03-07T04:12:39;39.37;;;26.87;;
9950;SDS011;24074;49.254;6.702;2024-03-07T04:15:08;38.73;;;26.97;;
9950;SDS011;24074;49.254;6.702;2024-03-07T04:17:41;39.53;;;27.00;;
9950;SDS011;24074;49.254;6.702;2024-03-07T04:20:07;40.93;;;27.83;;
9950;SDS011;24074;49.254;6.702;2024-03-07T04:22:35;39.50;;;27.03;;
9950;SDS011;24074;49.254;6.702;2024-03-07T04:25:04;38.17;;;26.60;;
9950;SDS011;24074;49.254;6.702;2024-03-07T04:27:31;40.17;;;26.37;;
9950;SDS011;24074;49.254;6.702;2024-03-07T04:29:57;40.30;;;27.10;;
9950;SDS011;24074;49.254;6.702;2024-03-07T04:32:23;39.10;;;26.17;;
9950;SDS011;24074;49.254;6.702;2024-03-07T04:34:49;37.27;;;26.03;;
9950;SDS011;24074;49.254;6.702;2024-03-07T04:37:17;39.60;;;27.57;;
9950;SDS011;24074;49.254;6.702;2024-03-07T04:39:42;40.27;;;27.53;;
9950;SDS011;24074;49.254;6.702;2024-03-07T04:42:08;41.33;;;27.50;;
9950;SDS011;24074;49.254;6.702;2024-03-07T04:44:34;37.17;;;26.43;;
9950;SDS011;24074;49.254;6.702;2024-03-07T04:47:01;42.20;;;27.97;;
9950;SDS011;24074;49.254;6.702;2024-03-07T04:49:31;40.47;;;27.03;;
9950;SDS011;24074;49.254;6.702;2024-03-07T04:51:58;40.63;;;27.00;;
9950;SDS011;24074;49.254;6.702;2024-03-07T04:54:25;39.87;;;27.47;;
9950;SDS011;24074;49.254;6.702;2024-03-07T04:56:52;41.47;;;28.27;;
9950;SDS011;24074;49.254;6.702;2024-03-07T04:59:18;40.27;;;26.97;;
9950;SDS011;24074;49.254;6.702;2024-03-07T05:01:46;41.17;;;26.37;;
9950;SDS011;24074;49.254;6.702;2024-03-07T05:04:13;42.73;;;28.07;;
9950;SDS011;24074;49.254;6.702;2024-03-07T05:06:39;40.53;;;26.90;;
9950;SDS011;24074;49.254;6.702;2024-03-07T05:09:06;41.20;;;28.13;;
9950;SDS011;24074;49.254;6.702;2024-03-07T05:11:34;40.67;;;27.23;;
9950;SDS011;24074;49.254;6.702;2024-03-07T05:14:01;43.13;;;28.27;;
9950;SDS011;24074;49.254;6.702;2024-03-07T05:16:27;39.27;;;27.13;;
9950;SDS011;24074;49.254;6.702;2024-03-07T05:18:55;38.53;;;26.33;;
9950;SDS011;24074;49.254;6.702;2024-03-07T05:21:24;41.20;;;27.33;;
9950;SDS011;24074;49.254;6.702;2024-03-07T05:24:04;38.23;;;26.40;;
9950;SDS011;24074;49.254;6.702;2024-03-07T05:26:30;41.30;;;27.83;;
9950;SDS011;24074;49.254;6.702;2024-03-07T05:29:02;42.83;;;28.50;;
9950;SDS011;24074;49.254;6.702;2024-03-07T05:31:36;44.43;;;28.07;;
9950;SDS011;24074;49.254;6.702;2024-03-07T05:34:03;41.93;;;27.80;;
9950;SDS011;24074;49.254;6.702;2024-03-07T05:36:32;45.13;;;28.83;;
9950;SDS011;24074;49.254;6.702;2024-03-07T05:38:58;43.33;;;27.73;;
9950;SDS011;24074;49.254;6.702;2024-03-07T05:41:24;42.43;;;27.63;;
9950;SDS011;24074;49.254;6.702;2024-03-07T05:43:54;40.63;;;27.70;;
9950;SDS011;24074;49.254;6.702;2024-03-07T05:46:21;43.53;;;27.80;;
9950;SDS011;24074;49.254;6.702;2024-03-07T05:48:47;42.07;;;28.17;;
9950;SDS011;24074;49.254;6.702;2024-03-07T05:51:16;42.73;;;29.13;;
9950;SDS011;24074;49.254;6.702;2024-03-07T05:53:43;42.37;;;28.87;;
9950;SDS011;24074;49.254;6.702;2024-03-07T05:56:08;44.30;;;28.07;;
9950;SDS011;24074;49.254;6.702;2024-03-07T05:58:34;41.83;;;27.40;;
9950;SDS011;24074;49.254;6.702;2024-03-07T06:01:00;42.57;;;28.03;;
9950;SDS011;24074;49.254;6.702;2024-03-07T06:03:25;43.63;;;28.47;;
9950;SDS011;24074;49.254;6.702;2024-03-07T06:05:51;42.50;;;27.83;;
9950;SDS011;24074;49.254;6.702;2024-03-07T06:08:18;41.30;;;27.63;;
9950;SDS011;24074;49.254;6.702;2024-03-07T06:10:45;41.80;;;27.73;;
9950;SDS011;24074;49.254;6.702;2024-03-07T06:13:11;41.33;;;27.33;;
9950;SDS011;24074;49.254;6.702;2024-03-07T06:15:38;43.23;;;27.17;;
9950;SDS011;24074;49.254;6.702;2024-03-07T06:18:05;44.07;;;28.10;;
9950;SDS011;24074;49.254;6.702;2024-03-07T06:20:33;41.37;;;27.07;;
9950;SDS011;24074;49.254;6.702;2024-03-07T06:23:00;40.87;;;27.97;;
9950;SDS011;24074;49.254;6.702;2024-03-07T06:25:33;40.77;;;27.57;;
9950;SDS011;24074;49.254;6.702;2024-03-07T06:28:05;41.23;;;27.33;;
9950;SDS011;24074;49.254;6.702;2024-03-07T06:30:42;42.63;;;26.97;;
9950;SDS011;24074;49.254;6.702;2024-03-07T06:33:09;41.83;;;27.93;;
9950;SDS011;24074;49.254;6.702;2024-03-07T06:35:35;41.23;;;27.93;;
9950;SDS011;24074;49.254;6.702;2024-03-07T06:38:05;43.07;;;28.07;;
9950;SDS011;24074;49.254;6.702;2024-03-07T06:40:31;38.50;;;27.70;;
9950;SDS011;24074;49.254;6.702;2024-03-07T06:42:58;36.97;;;26.13;;
9950;SDS011;24074;49.254;6.702;2024-03-07T06:45:24;38.80;;;25.60;;
9950;SDS011;24074;49.254;6.702;2024-03-07T06:47:50;38.43;;;25.63;;
9950;SDS011;24074;49.254;6.702;2024-03-07T06:50:17;37.33;;;25.47;;
9950;SDS011;24074;49.254;6.702;2024-03-07T06:52:45;34.87;;;25.40;;
9950;SDS011;24074;49.254;6.702;2024-03-07T06:55:12;37.37;;;25.77;;
9950;SDS011;24074;49.254;6.702;2024-03-07T06:57:47;38.27;;;26.43;;
9950;SDS011;24074;49.254;6.702;2024-03-07T07:00:13;36.43;;;24.07;;
9950;SDS011;24074;49.254;6.702;2024-03-07T07:02:45;35.67;;;25.10;;
9950;SDS011;24074;49.254;6.702;2024-03-07T07:05:11;34.57;;;25.33;;
9950;SDS011;24074;49.254;6.702;2024-03-07T07:07:37;34.00;;;23.80;;
9950;SDS011;24074;49.254;6.702;2024-03-07T07:10:03;35.17;;;24.97;;
9950;SDS011;24074;49.254;6.702;2024-03-07T07:12:34;34.67;;;25.03;;
9950;SDS011;24074;49.254;6.702;2024-03-07T07:15:00;36.30;;;25.00;;
9950;SDS011;24074;49.254;6.702;2024-03-07T07:17:28;34.13;;;25.17;;
9950;SDS011;24074;49.254;6.702;2024-03-07T07:19:54;33.40;;;24.00;;
9950;SDS011;24074;49.254;6.702;2024-03-07T07:22:24;33.80;;;23.97;;
9950;SDS011;24074;49.254;6.702;2024-03-07T07:24:50;33.33;;;24.13;;
9950;SDS011;24074;49.254;6.702;2024-03-07T07:27:16;34.03;;;24.97;;
9950;SDS011;24074;49.254;6.702;2024-03-07T07:29:43;34.13;;;23.97;;
9950;SDS011;24074;49.254;6.702;2024-03-07T07:32:09;30.63;;;22.87;;
9950;SDS011;24074;49.254;6.702;2024-03-07T07:34:37;30.03;;;23.17;;
9950;SDS011;24074;49.254;6.702;2024-03-07T07:37:03;27.87;;;21.53;;
9950;SDS011;24074;49.254;6.702;2024-03-07T07:39:30;31.50;;;23.53;;
9950;SDS011;24074;49.254;6.702;2024-03-07T07:41:56;29.13;;;23.70;;
9950;SDS011;24074;49.254;6.702;2024-03-07T07:44:25;29.90;;;23.23;;
9950;SDS011;24074;49.254;6.702;2024-03-07T07:46:50;27.87;;;22.90;;
9950;SDS011;24074;49.254;6.702;2024-03-07T07:49:16;27.27;;;22.60;;
9950;SDS011;24074;49.254;6.702;2024-03-07T07:51:41;27.63;;;22.07;;
9950;SDS011;24074;49.254;6.702;2024-03-07T07:54:07;29.83;;;22.90;;
9950;SDS011;24074;49.254;6.702;2024-03-07T07:56:34;27.83;;;22.97;;
9950;SDS011;24074;49.254;6.702;2024-03-07T07:59:00;28.03;;;22.57;;
9950;SDS011;24074;49.254;6.702;2024-03-07T08:01:26;28.27;;;22.00;;
9950;SDS011;24074;49.254;6.702;2024-03-07T08:03:52;28.10;;;22.03;;
9950;SDS011;24074;49.254;6.702;2024-03-07T08:06:20;28.50;;;22.93;;
9950;SDS011;24074;49.254;6.702;2024-03-07T08:08:46;29.37;;;23.23;;
9950;SDS011;24074;49.254;6.702;2024-03-07T08:11:12;31.90;;;24.50;;
9950;SDS011;24074;49.254;6.702;2024-03-07T08:13:39;32.57;;;23.27;;
9950;SDS011;24074;49.254;6.702;2024-03-07T08:16:05;32.20;;;24.23;;
9950;SDS011;24074;49.254;6.702;2024-03-07T08:18:31;32.37;;;23.67;;
9950;SDS011;24074;49.254;6.702;2024-03-07T08:20:57;29.63;;;22.93;;
9950;SDS011;24074;49.254;6.702;2024-03-07T08:23:23;30.23;;;21.50;;
9950;SDS011;24074;49.254;6.702;2024-03-07T08:25:51;31.80;;;22.43;;
9950;SDS011;24074;49.254;6.702;2024-03-07T08:28:17;27.50;;;21.67;;
9950;SDS011;24074;49.254;6.702;2024-03-07T08:30:43;27.10;;;20.80;;
9950;SDS011;24074;49.254;6.702;2024-03-07T08:33:11;27.93;;;21.27;;
9950;SDS011;24074;49.254;6.702;2024-03-07T08:35:38;27.00;;;20.97;;
9950;SDS011;24074;49.254;6.702;2024-03-07T08:38:03;27.63;;;21.73;;
9950;SDS011;24074;49.254;6.702;2024-03-07T08:40:30;25.53;;;19.30;;
9950;SDS011;24074;49.254;6.702;2024-03-07T08:42:57;27.47;;;20.13;;
9950;SDS011;24074;49.254;6.702;2024-03-07T08:45:23;24.43;;;19.40;;
9950;SDS011;24074;49.254;6.702;2024-03-07T08:47:53;22.83;;;19.40;;
9950;SDS011;24074;49.254;6.702;2024-03-07T08:50:21;24.50;;;18.77;;
9950;SDS011;24074;49.254;6.702;2024-03-07T08:52:48;23.90;;;19.23;;
9950;SDS011;24074;49.254;6.702;2024-03-07T08:55:16;22.63;;;19.50;;
9950;SDS011;24074;49.254;6.702;2024-03-07T08:57:44;26.67;;;18.07;;
9950;SDS011;24074;49.254;6.702;2024-03-07T09:00:14;24.83;;;18.80;;
9950;SDS011;24074;49.254;6.702;2024-03-07T09:02:50;26.67;;;20.53;;
9950;SDS011;24074;49.254;6.702;2024-03-07T09:05:20;26.90;;;18.77;;
9950;SDS011;24074;49.254;6.702;2024-03-07T09:07:50;25.67;;;20.07;;
9950;SDS011;24074;49.254;6.702;2024-03-07T09:10:16;25.80;;;20.77;;
9950;SDS011;24074;49.254;6.702;2024-03-07T09:12:42;23.40;;;20.23;;
9950;SDS011;24074;49.254;6.702;2024-03-07T09:15:09;25.10;;;20.67;;
9950;SDS011;24074;49.254;6.702;2024-03-07T09:17:38;26.33;;;19.50;;
9950;SDS011;24074;49.254;6.702;2024-03-07T09:20:04;29.57;;;21.20;;
9950;SDS011;24074;49.254;6.702;2024-03-07T09:22:31;22.23;;;15.97;;
9950;SDS011;24074;49.254;6.702;2024-03-07T09:24:57;21.37;;;15.93;;
9950;SDS011;24074;49.254;6.702;2024-03-07T09:27:23;18.47;;;15.30;;
9950;SDS011;24074;49.254;6.702;2024-03-07T09:29:49;17.50;;;13.77;;
9950;SDS011;24074;49.254;6.702;2024-03-07T09:32:14;18.13;;;14.63;;
9950;SDS011;24074;49.254;6.702;2024-03-07T09:34:40;17.73;;;11.70;;
9950;SDS011;24074;49.254;6.702;2024-03-07T09:37:08;20.27;;;15.03;;
9950;SDS011;24074;49.254;6.702;2024-03-07T09:39:34;17.10;;;13.00;;
9950;SDS011;24074;49.254;6.702;2024-03-07T09:42:04;16.63;;;11.87;;
9950;SDS011;24074;49.254;6.702;2024-03-07T09:44:36;17.53;;;12.30;;
9950;SDS011;24074;49.254;6.702;2024-03-07T09:47:05;21.20;;;14.03;;
9950;SDS011;24074;49.254;6.702;2024-03-07T09:49:31;16.73;;;12.53;;
9950;SDS011;24074;49.254;6.702;2024-03-07T09:52:00;17.97;;;14.37;;
9950;SDS011;24074;49.254;6.702;2024-03-07T09:54:28;22.13;;;14.67;;
9950;SDS011;24074;49.254;6.702;2024-03-07T09:56:54;20.10;;;15.87;;
9950;SDS011;24074;49.254;6.702;2024-03-07T09:59:24;17.67;;;13.47;;
9950;SDS011;24074;49.254;6.702;2024-03-07T10:01:54;18.83;;;14.57;;
9950;SDS011;24074;49.254;6.702;2024-03-07T10:04:29;18.60;;;14.63;;
9950;SDS011;24074;49.254;6.702;2024-03-07T10:07:00;19.07;;;12.90;;
9950;SDS011;24074;49.254;6.702;2024-03-07T10:09:26;19.40;;;14.47;;
9950;SDS011;24074;49.254;6.702;2024-03-07T10:11:58;18.57;;;14.30;;
9950;SDS011;24074;49.254;6.702;2024-03-07T10:14:24;20.10;;;15.13;;
9950;SDS011;24074;49.254;6.702;2024-03-07T10:16:50;18.43;;;14.33;;
9950;SDS011;24074;49.254;6.702;2024-03-07T10:19:18;19.37;;;14.73;;
9950;SDS011;24074;49.254;6.702;2024-03-07T10:21:44;19.23;;;9.67;;
9950;SDS011;24074;49.254;6.702;2024-03-07T10:24:09;19.63;;;13.77;;
9950;SDS011;24074;49.254;6.702;2024-03-07T10:26:38;18.90;;;14.80;;
9950;SDS011;24074;49.254;6.702;2024-03-07T10:29:07;18.40;;;15.03;;
9950;SDS011;24074;49.254;6.702;2024-03-07T10:31:33;20.80;;;16.70;;
9950;SDS011;24074;49.254;6.702;2024-03-07T10:34:03;21.07;;;15.93;;
9950;SDS011;24074;49.254;6.702;2024-03-07T10:36:29;19.57;;;16.63;;
9950;SDS011;24074;49.254;6.702;2024-03-07T10:41:37;19.77;;;17.20;;
9950;SDS011;24074;49.254;6.702;2024-03-07T10:44:18;20.73;;;17.20;;
9950;SDS011;24074;49.254;6.702;2024-03-07T10:46:46;19.73;;;16.63;;
9950;SDS011;24074;49.254;6.702;2024-03-07T10:49:20;18.53;;;16.13;;
9950;SDS011;24074;49.254;6.702;2024-03-07T10:57:29;19.10;;;15.53;;
9950;SDS011;24074;49.254;6.702;2024-03-07T11:00:04;18.03;;;15.50;;
9950;SDS011;24074;49.254;6.702;2024-03-07T11:02:53;18.53;;;15.73;;
9950;SDS011;24074;49.254;6.702;2024-03-07T11:05:20;17.80;;;15.00;;
9950;SDS011;24074;49.254;6.702;2024-03-07T11:07:49;17.47;;;14.33;;
9950;SDS011;24074;49.254;6.702;2024-03-07T11:10:15;15.60;;;13.37;;
9950;SDS011;24074;49.254;6.702;2024-03-07T11:12:42;16.60;;;14.43;;
9950;SDS011;24074;49.254;6.702;2024-03-07T11:15:10;17.27;;;13.73;;
9950;SDS011;24074;49.254;6.702;2024-03-07T11:17:47;17.60;;;14.27;;
9950;SDS011;24074;49.254;6.702;2024-03-07T11:20:23;16.93;;;14.03;;
9950;SDS011;24074;49.254;6.702;2024-03-07T11:22:50;16.73;;;13.63;;
9950;SDS011;24074;49.254;6.702;2024-03-07T11:25:19;17.07;;;14.63;;
9950;SDS011;24074;49.254;6.702;2024-03-07T11:30:24;15.57;;;13.43;;
9950;SDS011;24074;49.254;6.702;2024-03-07T11:32:51;13.67;;;11.90;;
9950;SDS011;24074;49.254;6.702;2024-03-07T11:35:32;14.83;;;12.60;;
9950;SDS011;24074;49.254;6.702;2024-03-07T11:38:00;15.70;;;14.00;;
9950;SDS011;24074;49.254;6.702;2024-03-07T11:42:55;14.80;;;12.50;;
9950;SDS011;24074;49.254;6.702;2024-03-07T11:45:25;15.97;;;12.90;;
9950;SDS011;24074;49.254;6.702;2024-03-07T11:47:52;16.23;;;12.87;;
9950;SDS011;24074;49.254;6.702;2024-03-07T11:50:28;12.83;;;10.50;;
9950;SDS011;24074;49.254;6.702;2024-03-07T11:52:59;16.87;;;12.13;;
9950;SDS011;24074;49.254;6.702;2024-03-07T11:55:26;16.37;;;13.90;;
9950;SDS011;24074;49.254;6.702;2024-03-07T11:57:53;16.33;;;13.27;;
9950;SDS011;24074;49.254;6.702;2024-03-07T12:00:19;16.27;;;13.53;;
9950;SDS011;24074;49.254;6.702;2024-03-07T12:02:48;14.03;;;12.07;;
9950;SDS011;24074;49.254;6.702;2024-03-07T12:05:14;16.00;;;12.93;;
9950;SDS011;24074;49.254;6.702;2024-03-07T12:07:42;15.70;;;11.70;;
9950;SDS011;24074;49.254;6.702;2024-03-07T12:10:09;15.83;;;12.80;;
9950;SDS011;24074;49.254;6.702;2024-03-07T12:12:35;13.77;;;12.03;;
9950;SDS011;24074;49.254;6.702;2024-03-07T12:15:04;15.70;;;12.00;;
9950;SDS011;24074;49.254;6.702;2024-03-07T12:17:46;14.40;;;12.10;;
9950;SDS011;24074;49.254;6.702;2024-03-07T12:20:14;13.63;;;11.90;;
9950;SDS011;24074;49.254;6.702;2024-03-07T12:22:56;13.20;;;10.30;;
9950;SDS011;24074;49.254;6.702;2024-03-07T12:25:22;14.13;;;11.73;;
9950;SDS011;24074;49.254;6.702;2024-03-07T12:28:05;13.97;;;12.17;;
9950;SDS011;24074;49.254;6.702;2024-03-07T12:33:21;14.73;;;12.43;;
9950;SDS011;24074;49.254;6.702;2024-03-07T12:35:52;11.03;;;9.23;;
9950;SDS011;24074;49.254;6.702;2024-03-07T12:38:25;12.00;;;10.17;;
9950;SDS011;24074;49.254;6.702;2024-03-07T12:41:02;12.27;;;10.67;;
9950;SDS011;24074;49.254;6.702;2024-03-07T12:43:31;12.93;;;10.40;;
9950;SDS011;24074;49.254;6.702;2024-03-07T12:45:57;13.00;;;9.33;;
9950;SDS011;24074;49.254;6.702;2024-03-07T12:48:24;12.97;;;8.27;;
9950;SDS011;24074;49.254;6.702;2024-03-07T12:50:50;13.93;;;11.70;;
9950;SDS011;24074;49.254;6.702;2024-03-07T12:53:23;11.83;;;9.60;;
9950;SDS011;24074;49.254;6.702;2024-03-07T12:55:50;14.97;;;11.27;;
9950;SDS011;24074;49.254;6.702;2024-03-07T12:58:17;13.77;;;11.37;;
9950;SDS011;24074;49.254;6.702;2024-03-07T13:00:45;13.97;;;10.13;;
9950;SDS011;24074;49.254;6.702;2024-03-07T13:03:10;13.97;;;11.93;;
9950;SDS011;24074;49.254;6.702;2024-03-07T13:05:39;13.40;;;11.00;;
9950;SDS011;24074;49.254;6.702;2024-03-07T13:08:08;14.33;;;11.40;;
9950;SDS011;24074;49.254;6.702;2024-03-07T13:10:43;13.67;;;11.20;;
9950;SDS011;24074;49.254;6.702;2024-03-07T13:13:09;14.53;;;11.63;;
9950;SDS011;24074;49.254;6.702;2024-03-07T13:15:36;14.00;;;10.90;;
9950;SDS011;24074;49.254;6.702;2024-03-07T13:18:03;12.23;;;9.80;;
9950;SDS011;24074;49.254;6.702;2024-03-07T13:20:32;18.07;;;13.70;;
9950;SDS011;24074;49.254;6.702;2024-03-07T13:23:00;14.27;;;11.90;;
9950;SDS011;24074;49.254;6.702;2024-03-07T13:25:26;11.37;;;9.97;;
9950;SDS011;24074;49.254;6.702;2024-03-07T13:30:39;12.87;;;9.73;;
9950;SDS011;24074;49.254;6.702;2024-03-07T13:33:05;16.43;;;10.23;;
9950;SDS011;24074;49.254;6.702;2024-03-07T13:35:31;15.37;;;10.97;;
9950;SDS011;24074;49.254;6.702;2024-03-07T13:37:57;13.93;;;12.27;;
9950;SDS011;24074;49.254;6.702;2024-03-07T13:40:23;13.07;;;10.37;;
9950;SDS011;24074;49.254;6.702;2024-03-07T13:42:54;9.63;;;7.63;;
9950;SDS011;24074;49.254;6.702;2024-03-07T13:45:21;13.07;;;10.70;;
9950;SDS011;24074;49.254;6.702;2024-03-07T13:47:48;11.23;;;9.70;;
9950;SDS011;24074;49.254;6.702;2024-03-07T13:50:17;13.10;;;10.53;;
9950;SDS011;24074;49.254;6.702;2024-03-07T13:52:44;14.43;;;10.30;;
9950;SDS011;24074;49.254;6.702;2024-03-07T13:55:30;15.77;;;10.77;;
9950;SDS011;24074;49.254;6.702;2024-03-07T13:57:58;11.07;;;7.90;;
9950;SDS011;24074;49.254;6.702;2024-03-07T14:12:14;12.03;;;10.73;;
9950;SDS011;24074;49.254;6.702;2024-03-07T14:15:18;11.00;;;9.07;;
9950;SDS011;24074;49.254;6.702;2024-03-07T14:27:15;12.17;;;9.77;;
9950;SDS011;24074;49.254;6.702;2024-03-07T14:32:51;12.17;;;10.17;;
9950;SDS011;24074;49.254;6.702;2024-03-07T14:40:48;15.17;;;11.17;;
9950;SDS011;24074;49.254;6.702;2024-03-07T14:43:16;10.40;;;8.27;;
9950;SDS011;24074;49.254;6.702;2024-03-07T14:45:44;11.90;;;9.43;;
9950;SDS011;24074;49.254;6.702;2024-03-07T14:48:11;12.53;;;10.40;;
9950;SDS011;24074;49.254;6.702;2024-03-07T14:50:41;11.40;;;10.20;;
9950;SDS011;24074;49.254;6.702;2024-03-07T14:53:09;13.43;;;11.10;;
9950;SDS011;24074;49.254;6.702;2024-03-07T14:55:37;13.93;;;9.93;;
9950;SDS011;24074;49.254;6.702;2024-03-07T14:58:04;12.30;;;10.33;;
9950;SDS011;24074;49.254;6.702;2024-03-07T15:00:34;12.93;;;9.90;;
9950;SDS011;24074;49.254;6.702;2024-03-07T15:03:06;11.17;;;8.30;;
9950;SDS011;24074;49.254;6.702;2024-03-07T15:05:34;12.67;;;9.73;;
9950;SDS011;24074;49.254;6.702;2024-03-07T15:08:00;11.93;;;8.50;;
9950;SDS011;24074;49.254;6.702;2024-03-07T15:10:27;13.87;;;9.63;;
9950;SDS011;24074;49.254;6.702;2024-03-07T15:12:56;11.00;;;8.27;;
9950;SDS011;24074;49.254;6.702;2024-03-07T15:15:22;12.07;;;9.23;;
9950;SDS011;24074;49.254;6.702;2024-03-07T15:17:53;11.67;;;10.03;;
9950;SDS011;24074;49.254;6.702;2024-03-07T15:20:22;10.40;;;7.57;;
9950;SDS011;24074;49.254;6.702;2024-03-07T15:22:50;12.93;;;9.70;;
9950;SDS011;24074;49.254;6.702;2024-03-07T15:25:20;13.17;;;10.30;;
9950;SDS011;24074;49.254;6.702;2024-03-07T15:27:52;15.43;;;10.50;;